Time;durP1;ratioP1;P1;durP2;ratioP2;P2;SDS_P1;SDS_P2;PMS_P1;PMS_P2;Temp;Humidity;BMP_temperature;BMP_pressure;BME280_temperature;BME280_humidity;BME280_pressure;Samples;Min_cycle;Max_cycle;Signal;HPM_P1;HPM_P2
2023/04/01 00:03:25;;;;;;;;;;;8.79;17.63;;;;;;2668592;76;20467;-86
2023/04/01 00:07:01;;;;;;;;;;;8.61;16.74;;;;;;2669381;76;20450;-85
2023/04/01 00:10:26;;;;;;;;;;;8.53;17.05;;;;;;2669724;76;20335;-87
2023/04/01 00:13:59;;;;;;;;;;;8.56;17.18;;;;;;2669555;76;20436;-86
2023/04/01 00:17:27;;;;;;;;;;;8.45;17.58;;;;;;2669550;76;20543;-86
2023/04/01 00:21:08;;;;;;;;;;;8.48;18.00;;;;;;2669854;76;20487;-87
2023/04/01 00:24:36;;;;;;;;;;;8.32;18.22;;;;;;2670425;76;20899;-88
2023/04/01 00:28:06;;;;;;;;;;;8.29;18.73;;;;;;2670746;76;20445;-87
2023/04/01 00:31:35;;;;;;;;;;;8.20;18.74;;;;;;2669627;76;20451;-87
2023/04/01 00:35:03;;;;;;;;;;;8.12;18.80;;;;;;2670110;76;20372;-87
2023/04/01 00:38:34;;;;;;;;;;;8.12;18.33;;;;;;2670801;76;20437;-87
2023/04/01 00:42:06;;;;;;;;;;;8.23;18.78;;;;;;2669810;76;20365;-87
2023/04/01 00:45:35;;;;;;;;;;;8.18;18.47;;;;;;2669333;76;20428;-87
2023/04/01 00:49:06;;;;;;;;;;;8.18;18.58;;;;;;2668978;76;20314;-87
2023/04/01 00:52:38;;;;;;;;;;;8.22;18.73;;;;;;2670096;76;20699;-87
2023/04/01 00:56:09;;;;;;;;;;;8.27;18.70;;;;;;2669908;76;20351;-87
2023/04/01 00:59:37;;;;;;;;;;;8.24;18.64;;;;;;2669859;76;20449;-87
2023/04/01 01:03:08;;;;;;;;;;;8.26;18.51;;;;;;2669683;76;21049;-87
2023/04/01 01:06:55;;;;;;;;;;;8.34;18.71;;;;;;2670127;76;20519;-87
2023/04/01 01:10:21;;;;;;;;;;;8.31;18.76;;;;;;2671143;76;20473;-87
2023/04/01 01:13:49;;;;;;;;;;;8.34;19.08;;;;;;2670538;76;20468;-87
2023/04/01 01:17:17;;;;;;;;;;;8.37;19.42;;;;;;2669211;76;20341;-87
2023/04/01 01:24:16;;;;;;;;;;;8.32;19.66;;;;;;2670385;76;20839;-87
2023/04/01 01:27:49;;;;;;;;;;;8.20;18.71;;;;;;2668874;76;20321;-87
2023/04/01 01:31:21;;;;;;;;;;;8.20;18.50;;;;;;2670595;76;20469;-87
2023/04/01 01:34:52;;;;;;;;;;;8.21;18.80;;;;;;2670802;76;20440;-86
2023/04/01 01:38:21;;;;;;;;;;;8.21;18.93;;;;;;2668924;76;20497;-87
2023/04/01 01:41:52;;;;;;;;;;;8.20;19.11;;;;;;2670207;76;20460;-88
2023/04/01 01:45:24;;;;;;;;;;;8.21;19.22;;;;;;2669914;76;20461;-88
2023/04/01 01:52:35;;;;;;;;;;;8.19;18.69;;;;;;2668762;76;20505;-87
2023/04/01 01:56:18;;;;;;;;;;;8.23;18.49;;;;;;2667803;76;20451;-87
2023/04/01 01:59:46;;;;;;;;;;;8.24;17.79;;;;;;2668285;76;20425;-87
2023/04/01 02:03:19;;;;;;;;;;;8.30;17.96;;;;;;2668441;76;20458;-87
2023/04/01 02:07:04;;;;;;;;;;;8.23;17.32;;;;;;2668758;76;21723;-87
2023/04/01 02:10:35;;;;;;;;;;;8.27;17.55;;;;;;2667472;76;20465;-88
2023/04/01 02:14:14;;;;;;;;;;;8.22;17.34;;;;;;2667635;76;21358;-87
2023/04/01 02:17:54;;;;;;;;;;;8.26;17.42;;;;;;2667464;76;20553;-86
2023/04/01 02:24:57;;;;;;;;;;;8.33;17.81;;;;;;2668287;76;20837;-88
2023/04/01 02:28:42;;;;;;;;;;;8.22;17.55;;;;;;2668072;76;20444;-88
2023/04/01 02:32:20;;;;;;;;;;;8.22;17.57;;;;;;2668445;76;20851;-87
2023/04/01 02:35:48;;;;;;;;;;;8.28;17.83;;;;;;2670411;76;20456;-87
2023/04/01 02:39:16;;;;;;;;;;;8.19;17.34;;;;;;2668987;76;20471;-87
2023/04/01 02:42:44;;;;;;;;;;;8.16;17.07;;;;;;2669375;76;20758;-87
2023/04/01 02:46:12;;;;;;;;;;;8.23;16.96;;;;;;2669821;76;21080;-86
2023/04/01 02:49:41;;;;;;;;;;;8.18;16.36;;;;;;2670468;76;20344;-87
2023/04/01 02:53:09;;;;;;;;;;;8.32;17.35;;;;;;2670321;76;20465;-86
2023/04/01 02:56:37;;;;;;;;;;;8.27;17.52;;;;;;2673247;76;20431;-93
2023/04/01 03:00:10;;;;;;;;;;;8.13;16.75;;;;;;2673982;76;20477;-93
2023/04/01 03:03:35;;;;;;;;;;;8.24;17.27;;;;;;2675030;76;20464;-93
2023/04/01 03:07:03;;;;;;;;;;;8.28;16.69;;;;;;2673262;76;20346;-94
2023/04/01 03:10:31;;;;;;;;;;;8.29;16.69;;;;;;2672813;76;20491;-92
2023/04/01 03:13:59;;;;;;;;;;;8.32;16.67;;;;;;2672577;76;20464;-94
2023/04/01 03:17:27;;;;;;;;;;;8.32;16.69;;;;;;2672399;76;20398;-93
2023/04/01 03:20:56;;;;;;;;;;;8.29;17.19;;;;;;2673535;76;20470;-93
2023/04/01 03:24:24;;;;;;;;;;;8.19;17.21;;;;;;2674190;76;20333;-94
2023/04/01 03:27:52;;;;;;;;;;;8.07;17.07;;;;;;2672541;76;20310;-94
2023/04/01 03:31:20;;;;;;;;;;;8.00;17.16;;;;;;2673291;76;20362;-93
2023/04/01 03:34:48;;;;;;;;;;;8.02;17.25;;;;;;2673069;76;20403;-93
2023/04/01 03:38:21;;;;;;;;;;;7.85;17.09;;;;;;2671527;76;20481;-92
2023/04/01 03:41:46;;;;;;;;;;;7.84;17.43;;;;;;2671109;76;20482;-92
2023/04/01 03:45:14;;;;;;;;;;;7.79;17.38;;;;;;2673894;76;20978;-92
2023/04/01 03:48:42;;;;;;;;;;;7.75;17.37;;;;;;2676745;76;20542;-93
2023/04/01 03:52:10;;;;;;;;;;;7.89;17.82;;;;;;2677327;76;20438;-93
2023/04/01 03:55:38;;;;;;;;;;;7.90;17.89;;;;;;2675754;76;20465;-93
2023/04/01 03:59:07;;;;;;;;;;;7.96;17.81;;;;;;2675076;76;20302;-93
2023/04/01 04:02:35;;;;;;;;;;;7.92;17.21;;;;;;2673964;76;20448;-92
2023/04/01 04:06:03;;;;;;;;;;;7.96;16.96;;;;;;2674790;76;20426;-93
2023/04/01 04:09:31;;;;;;;;;;;8.00;17.21;;;;;;2673631;76;20301;-92
2023/04/01 04:13:02;;;;;;;;;;;7.92;16.74;;;;;;2674037;76;20421;-93
2023/04/01 04:16:29;;;;;;;;;;;7.96;16.71;;;;;;2673602;76;20445;-92
2023/04/01 04:19:57;;;;;;;;;;;7.93;16.62;;;;;;2673662;76;20428;-92
2023/04/01 04:23:26;;;;;;;;;;;7.93;17.09;;;;;;2673657;76;20427;-92
2023/04/01 04:26:58;;;;;;;;;;;7.91;17.04;;;;;;2674347;76;20442;-93
2023/04/01 04:30:26;;;;;;;;;;;7.89;16.86;;;;;;2673113;76;20500;-92
2023/04/01 04:33:54;;;;;;;;;;;7.93;17.39;;;;;;2674096;76;20645;-93
2023/04/01 04:37:22;;;;;;;;;;;7.96;17.86;;;;;;2673972;76;20424;-92
2023/04/01 04:40:50;;;;;;;;;;;8.02;18.16;;;;;;2673674;76;20329;-93
2023/04/01 04:44:18;;;;;;;;;;;7.83;18.22;;;;;;2673770;76;20918;-92
2023/04/01 04:47:46;;;;;;;;;;;7.81;19.02;;;;;;2673861;76;20432;-92
2023/04/01 04:51:15;;;;;;;;;;;7.73;20.07;;;;;;2674170;76;20435;-92
2023/04/01 04:54:43;;;;;;;;;;;7.82;20.77;;;;;;2677196;76;20461;-92
2023/04/01 04:58:11;;;;;;;;;;;7.82;20.43;;;;;;2678778;76;20968;-92
2023/04/01 05:01:39;;;;;;;;;;;7.86;20.40;;;;;;2678625;76;20426;-92
2023/04/01 05:05:07;;;;;;;;;;;7.88;19.40;;;;;;2677497;76;20902;-93
2023/04/01 05:08:36;;;;;;;;;;;8.01;19.26;;;;;;2673801;76;21564;-92
2023/04/01 05:12:04;;;;;;;;;;;8.13;18.97;;;;;;2675262;76;20454;-93
2023/04/01 05:15:32;;;;;;;;;;;8.13;18.65;;;;;;2677756;76;20430;-92
2023/04/01 05:19:00;;;;;;;;;;;8.23;17.67;;;;;;2677504;76;21507;-93
2023/04/01 05:22:28;;;;;;;;;;;8.34;17.01;;;;;;2676570;76;20426;-92
2023/04/01 05:25:56;;;;;;;;;;;8.48;17.02;;;;;;2676792;76;20841;-92
2023/04/01 05:29:25;;;;;;;;;;;8.60;16.59;;;;;;2677908;76;20322;-92
2023/04/01 05:32:53;;;;;;;;;;;8.76;16.38;;;;;;2677364;76;20320;-92
2023/04/01 05:36:21;;;;;;;;;;;8.85;15.64;;;;;;2676940;76;20711;-92
2023/04/01 05:39:49;;;;;;;;;;;9.00;15.16;;;;;;2676239;76;21016;-92
2023/04/01 05:43:17;;;;;;;;;;;9.18;15.27;;;;;;2674907;76;20342;-93
2023/04/01 05:46:45;;;;;;;;;;;9.29;14.87;;;;;;2674017;76;20445;-93
2023/04/01 05:50:13;;;;;;;;;;;9.14;13.99;;;;;;2671932;76;20430;-93
2023/04/01 05:53:41;;;;;;;;;;;9.31;13.92;;;;;;2671569;76;20455;-92
2023/04/01 05:57:09;;;;;;;;;;;9.23;13.51;;;;;;2670762;76;20511;-92
2023/04/01 06:00:38;;;;;;;;;;;9.40;13.10;;;;;;2671491;76;20432;-92
2023/04/01 06:04:06;;;;;;;;;;;9.61;12.50;;;;;;2672793;76;20458;-92
2023/04/01 06:07:34;;;;;;;;;;;9.60;12.23;;;;;;2667440;76;21335;-92
2023/04/01 06:11:03;;;;;;;;;;;9.54;11.83;;;;;;2671671;76;20475;-92
2023/04/01 06:14:31;;;;;;;;;;;9.39;11.33;;;;;;2674096;76;20320;-92
2023/04/01 06:18:02;;;;;;;;;;;9.46;12.03;;;;;;2672333;76;20308;-92
2023/04/01 06:21:29;;;;;;;;;;;9.52;11.63;;;;;;2672306;76;20929;-92
2023/04/01 06:24:57;;;;;;;;;;;9.83;11.46;;;;;;2672068;76;20964;-92
2023/04/01 06:28:25;;;;;;;;;;;9.86;10.85;;;;;;2673102;76;20434;-91
2023/04/01 06:31:54;;;;;;;;;;;9.82;10.72;;;;;;2672129;76;20466;-91
2023/04/01 06:35:22;;;;;;;;;;;10.08;9.79;;;;;;2672127;76;20465;-91
2023/04/01 06:38:50;;;;;;;;;;;10.36;9.91;;;;;;2672050;76;21307;-92
2023/04/01 06:42:18;;;;;;;;;;;10.43;9.33;;;;;;2670697;76;21006;-92
2023/04/01 06:45:46;;;;;;;;;;;10.29;8.82;;;;;;2669950;76;20460;-91
2023/04/01 06:49:14;;;;;;;;;;;10.70;9.05;;;;;;2669555;76;20454;-91
2023/04/01 06:52:42;;;;;;;;;;;10.63;7.75;;;;;;2670238;76;20413;-91
2023/04/01 06:56:10;;;;;;;;;;;10.05;6.12;;;;;;2670669;76;20361;-91
2023/04/01 06:59:38;;;;;;;;;;;9.90;6.05;;;;;;2670729;76;20449;-91
2023/04/01 07:03:06;;;;;;;;;;;10.29;7.05;;;;;;2670955;76;20445;-91
2023/04/01 07:06:35;;;;;;;;;;;10.58;6.60;;;;;;2671357;76;20459;-92
2023/04/01 07:10:03;;;;;;;;;;;10.56;4.94;;;;;;2671899;76;20301;-92
2023/04/01 07:13:31;;;;;;;;;;;10.93;5.09;;;;;;2670925;76;20422;-91
2023/04/01 07:16:59;;;;;;;;;;;11.12;4.04;;;;;;2671243;76;20448;-90
2023/04/01 07:20:28;;;;;;;;;;;10.90;3.12;;;;;;2671612;76;20419;-91
2023/04/01 07:23:56;;;;;;;;;;;10.93;3.34;;;;;;2671664;76;21152;-92
2023/04/01 07:27:24;;;;;;;;;;;11.05;3.99;;;;;;2672435;76;20846;-91
2023/04/01 07:30:54;;;;;;;;;;;11.13;4.56;;;;;;2672389;76;20324;-91
2023/04/01 07:34:27;;;;;;;;;;;10.97;4.18;;;;;;2671949;76;20318;-91
2023/04/01 07:37:52;;;;;;;;;;;10.88;4.01;;;;;;2669797;76;20338;-90
2023/04/01 07:41:21;;;;;;;;;;;10.99;4.00;;;;;;2672229;76;20948;-90
2023/04/01 07:44:50;;;;;;;;;;;11.43;3.93;;;;;;2672084;76;20611;-90
2023/04/01 07:48:18;;;;;;;;;;;11.77;3.16;;;;;;2670936;76;20916;-91
2023/04/01 07:51:46;;;;;;;;;;;11.72;1.80;;;;;;2671259;76;20442;-90
2023/04/01 07:55:14;;;;;;;;;;;11.76;0.71;;;;;;2671535;76;20414;-90
2023/04/01 07:58:42;;;;;;;;;;;12.07;0.69;;;;;;2672174;76;20442;-91
2023/04/01 08:02:10;;;;;;;;;;;12.53;1.10;;;;;;2671775;76;20454;-91
2023/04/01 08:05:39;;;;;;;;;;;12.00;-1.47;;;;;;2671059;76;20437;-91
2023/04/01 08:09:07;;;;;;;;;;;12.61;0.84;;;;;;2671435;76;20462;-90
2023/04/01 08:12:35;;;;;;;;;;;12.88;-0.29;;;;;;2671345;76;20893;-91
2023/04/01 08:16:03;;;;;;;;;;;12.58;-1.55;;;;;;2671282;76;20472;-90
2023/04/01 08:19:31;;;;;;;;;;;12.92;-1.19;;;;;;2670506;76;20443;-90
2023/04/01 08:22:59;;;;;;;;;;;12.66;-2.12;;;;;;2671134;76;21078;-90
2023/04/01 08:26:29;;;;;;;;;;;12.43;-1.51;;;;;;2672193;76;20909;-89
2023/04/01 08:29:57;;;;;;;;;;;12.31;-1.58;;;;;;2670600;76;20427;-91
2023/04/01 08:33:25;;;;;;;;;;;12.63;0.46;;;;;;2668953;76;20463;-90
2023/04/01 08:36:54;;;;;;;;;;;12.96;-1.08;;;;;;2671330;76;20426;-90
2023/04/01 08:40:22;;;;;;;;;;;13.46;-2.34;;;;;;2670929;76;20418;-89
2023/04/01 08:43:50;;;;;;;;;;;13.04;-4.57;;;;;;2671423;76;20457;-89
2023/04/01 08:47:18;;;;;;;;;;;13.45;-3.40;;;;;;2670832;76;20474;-90
2023/04/01 08:50:46;;;;;;;;;;;13.86;-3.82;;;;;;2670192;76;20450;-90
2023/04/01 08:54:14;;;;;;;;;;;13.50;-5.61;;;;;;2670254;76;20439;-90
2023/04/01 08:57:42;;;;;;;;;;;13.45;-5.44;;;;;;2670550;76;20436;-87
2023/04/01 09:01:10;;;;;;;;;;;13.22;-5.02;;;;;;2668953;76;20455;-87
2023/04/01 09:04:42;;;;;;;;;;;13.22;-5.18;;;;;;2668693;76;21774;-86
2023/04/01 09:08:10;;;;;;;;;;;13.29;-5.37;;;;;;2669169;76;20337;-87
2023/04/01 09:11:38;;;;;;;;;;;13.70;-5.42;;;;;;2669428;76;20435;-87
2023/04/01 09:15:07;;;;;;;;;;;14.22;117.40;;;;;;2669585;76;20460;-86
2023/04/01 09:18:35;;;;;;;;;;;14.59;117.08;;;;;;2669054;76;20506;-87
2023/04/01 09:22:03;;;;;;;;;;;15.07;117.54;;;;;;2667822;76;20427;-87
2023/04/01 09:25:31;;;;;;;;;;;15.62;118.54;;;;;;2668370;76;20431;-87
2023/04/01 09:28:59;;;;;;;;;;;15.43;117.81;;;;;;2667660;76;20808;-85
2023/04/01 09:32:27;;;;;;;;;;;15.01;115.92;;;;;;2667838;76;20829;-85
2023/04/01 09:35:55;;;;;;;;;;;15.36;117.38;;;;;;2667949;76;20866;-86
2023/04/01 09:39:24;;;;;;;;;;;15.31;116.37;;;;;;2667927;76;20816;-85
2023/04/01 09:42:52;;;;;;;;;;;15.51;116.58;;;;;;2668256;76;20429;-87
2023/04/01 09:46:20;;;;;;;;;;;15.49;116.04;;;;;;2667815;76;21038;-87
2023/04/01 09:49:48;;;;;;;;;;;15.45;114.83;;;;;;2665610;76;21007;-86
2023/04/01 09:53:16;;;;;;;;;;;15.74;114.73;;;;;;2667652;76;20459;-86
2023/04/01 09:56:44;;;;;;;;;;;15.55;114.12;;;;;;2668510;76;20447;-86
2023/04/01 10:00:13;;;;;;;;;;;15.17;114.91;;;;;;2666273;76;20547;-87
2023/04/01 10:03:43;;;;;;;;;;;14.74;114.13;;;;;;2666587;76;20477;-86
2023/04/01 10:07:12;;;;;;;;;;;15.01;114.60;;;;;;2667720;76;20432;-88
2023/04/01 10:10:40;;;;;;;;;;;15.58;114.40;;;;;;2669117;76;20476;-87
2023/04/01 10:14:08;;;;;;;;;;;15.38;112.99;;;;;;2669630;76;20939;-87
2023/04/01 10:17:36;;;;;;;;;;;15.00;113.60;;;;;;2669078;76;20497;-87
2023/04/01 10:21:06;;;;;;;;;;;14.60;113.53;;;;;;2667612;76;20466;-87
2023/04/01 10:24:34;;;;;;;;;;;15.28;114.18;;;;;;2669637;76;20866;-84
2023/04/01 10:28:02;;;;;;;;;;;15.68;114.65;;;;;;2670217;76;20413;-87
2023/04/01 10:31:31;;;;;;;;;;;16.08;114.09;;;;;;2668430;76;21048;-86
2023/04/01 10:34:59;;;;;;;;;;;16.07;113.49;;;;;;2668369;76;20464;-87
2023/04/01 10:38:27;;;;;;;;;;;15.52;113.00;;;;;;2667080;76;20427;-87
2023/04/01 10:41:55;;;;;;;;;;;15.92;114.76;;;;;;2665081;76;20478;-87
2023/04/01 10:45:31;;;;;;;;;;;16.12;113.74;;;;;;2665342;76;20472;-87
2023/04/01 10:48:53;;;;;;;;;;;15.75;113.73;;;;;;2664987;76;20439;-87
2023/04/01 10:52:22;;;;;;;;;;;15.74;113.96;;;;;;2666351;76;20470;-87
2023/04/01 10:55:50;;;;;;;;;;;15.62;114.50;;;;;;2664293;76;20460;-87
2023/04/01 10:59:23;;;;;;;;;;;15.65;117.05;;;;;;2665436;76;20538;-87
2023/04/01 11:02:51;;;;;;;;;;;14.81;116.92;;;;;;2667347;76;20835;-87
2023/04/01 11:06:21;;;;;;;;;;;14.57;117.82;;;;;;2670242;76;20463;-87
2023/04/01 11:09:51;;;;;;;;;;;14.73;118.34;;;;;;2668072;76;20472;-87
2023/04/01 11:13:19;;;;;;;;;;;14.20;-5.66;;;;;;2668083;76;20443;-87
2023/04/01 11:16:48;;;;;;;;;;;14.93;-5.82;;;;;;2668319;76;20916;-87
2023/04/01 11:20:19;;;;;;;;;;;15.45;-5.76;;;;;;2669960;76;20432;-87
2023/04/01 11:23:47;;;;;;;;;;;15.45;118.80;;;;;;2669622;76;20365;-87
2023/04/01 11:27:16;;;;;;;;;;;14.97;118.73;;;;;;2668698;76;21037;-87
2023/04/01 11:30:44;;;;;;;;;;;14.87;-4.25;;;;;;2667342;76;20428;-87
2023/04/01 11:34:18;;;;;;;;;;;14.33;-3.99;;;;;;2669310;76;20483;-87
2023/04/01 11:37:47;;;;;;;;;;;13.50;-1.90;;;;;;2667289;76;20468;-87
2023/04/01 11:41:16;;;;;;;;;;;13.08;0.48;;;;;;2667045;76;20911;-86
2023/04/01 11:44:46;;;;;;;;;;;12.31;3.22;;;;;;2668050;76;20494;-88
2023/04/01 11:48:19;;;;;;;;;;;12.38;6.83;;;;;;2668412;76;20443;-87
2023/04/01 11:52:05;;;;;;;;;;;11.72;11.28;;;;;;2667800;76;21045;-88
2023/04/01 11:55:38;;;;;;;;;;;11.16;12.04;;;;;;2669189;76;20506;-88
2023/04/01 11:59:09;;;;;;;;;;;11.00;13.90;;;;;;2667374;76;20493;-89
2023/04/01 12:02:45;;;;;;;;;;;10.80;15.51;;;;;;2672705;76;20249;-91
2023/04/01 12:06:16;;;;;;;;;;;10.95;15.20;;;;;;2671871;76;20456;-91
2023/04/01 12:09:46;;;;;;;;;;;11.04;15.80;;;;;;2667167;76;20435;-89
2023/04/01 12:13:20;;;;;;;;;;;10.98;15.32;;;;;;2669461;76;20414;-91
2023/04/01 12:16:45;;;;;;;;;;;11.32;15.83;;;;;;2670635;76;20444;-91
2023/04/01 12:20:22;;;;;;;;;;;11.36;15.68;;;;;;2678127;76;20403;-91
2023/04/01 12:23:50;;;;;;;;;;;11.31;16.04;;;;;;2670529;76;20472;-90
2023/04/01 12:27:18;;;;;;;;;;;11.12;15.75;;;;;;2668822;76;20504;-88
2023/04/01 12:30:52;;;;;;;;;;;11.20;16.20;;;;;;2668077;76;20923;-89
2023/04/01 12:34:16;;;;;;;;;;;10.89;15.68;;;;;;2667638;76;20474;-90
2023/04/01 12:37:47;;;;;;;;;;;10.65;15.89;;;;;;2668777;76;20971;-91
2023/04/01 12:41:15;;;;;;;;;;;10.49;16.30;;;;;;2668405;76;20458;-91
2023/04/01 12:44:46;;;;;;;;;;;10.40;16.56;;;;;;2666877;76;20891;-91
2023/04/01 12:48:15;;;;;;;;;;;10.68;17.35;;;;;;2667995;76;20953;-91
2023/04/01 12:51:43;;;;;;;;;;;10.56;16.83;;;;;;2667613;76;20436;-91
2023/04/01 12:55:11;;;;;;;;;;;10.77;17.86;;;;;;2669563;76;20338;-91
2023/04/01 12:58:41;;;;;;;;;;;10.67;17.69;;;;;;2667250;76;20705;-90
2023/04/01 13:02:18;;;;;;;;;;;10.49;17.61;;;;;;2669705;76;20899;-90
2023/04/01 13:05:57;;;;;;;;;;;;;;;;;;;;;
2023/04/01 13:09:32;;;;;;;;;;;10.36;18.83;;;;;;2675121;76;20482;-93
2023/04/01 13:13:00;;;;;;;;;;;10.22;18.81;;;;;;2671150;76;20414;-92
2023/04/01 13:16:38;;;;;;;;;;;10.41;18.78;;;;;;2670888;76;20514;-92
2023/04/01 13:20:06;;;;;;;;;;;10.24;17.71;;;;;;2669960;76;20433;-92
2023/04/01 13:23:41;;;;;;;;;;;10.27;17.41;;;;;;2671483;76;20477;-92
2023/04/01 13:31:04;;;;;;;;;;;10.79;15.55;;;;;;2675478;76;20336;-93
2023/04/01 13:34:30;;;;;;;;;;;10.98;14.64;;;;;;2669361;76;20508;-92
2023/04/01 13:38:22;;;;;;;;;;;11.12;14.10;;;;;;2674587;76;20458;-94
2023/04/01 13:45:31;;;;;;;;;;;11.22;13.62;;;;;;2670178;76;20357;-92
2023/04/01 13:49:00;;;;;;;;;;;11.24;13.35;;;;;;2669825;76;20514;-93
2023/04/01 13:52:31;;;;;;;;;;;11.49;13.74;;;;;;2668808;76;20343;-91
2023/04/01 13:56:04;;;;;;;;;;;11.18;13.42;;;;;;2670901;76;20474;-92
2023/04/01 13:59:38;;;;;;;;;;;11.47;12.69;;;;;;2667765;76;20486;-93
2023/04/01 14:03:08;;;;;;;;;;;11.87;12.46;;;;;;2668686;76;20467;-95
2023/04/01 14:06:49;;;;;;;;;;;11.84;11.40;;;;;;2668416;76;20438;-92
2023/04/01 14:10:13;;;;;;;;;;;11.91;11.43;;;;;;2668292;76;20492;-92
2023/04/01 14:13:49;;;;;;;;;;;11.89;10.67;;;;;;2667333;76;20579;-93
2023/04/01 14:17:14;;;;;;;;;;;11.75;11.08;;;;;;2668421;76;20909;-92
2023/04/01 14:20:42;;;;;;;;;;;11.96;11.16;;;;;;2668012;76;20446;-92
2023/04/01 14:24:24;;;;;;;;;;;12.18;11.07;;;;;;2670580;76;20466;-92
2023/04/01 14:27:51;;;;;;;;;;;12.36;9.79;;;;;;2668479;76;20438;-92
2023/04/01 14:31:50;;;;;;;;;;;;;;;;;;;;;
2023/04/01 14:35:00;;;;;;;;;;;12.81;8.47;;;;;;2666822;76;21972;-92
2023/04/01 14:38:39;;;;;;;;;;;12.26;8.18;;;;;;2668202;76;20926;-90
2023/04/01 14:46:02;;;;;;;;;;;;;;;;;;;;;
2023/04/01 14:49:25;;;;;;;;;;;12.62;7.49;;;;;;2664586;76;20460;-92
2023/04/01 14:52:59;;;;;;;;;;;13.18;5.65;;;;;;2665868;76;20538;-93
2023/04/01 14:56:30;;;;;;;;;;;13.46;4.45;;;;;;2666453;76;20491;-91
2023/04/01 15:00:01;;;;;;;;;;;12.69;3.69;;;;;;2667404;76;20902;-89
2023/04/01 15:11:51;;;;;;;;;;;;;;;;;;;;;
2023/04/01 15:19:29;;;;;;;;;;;12.14;10.30;;;;;;2664096;76;20492;-89
2023/04/01 15:23:07;;;;;;;;;;;;;;;;;;;;;
2023/04/01 15:27:00;;;;;;;;;;;11.87;11.10;;;;;;2665534;76;20484;-91
2023/04/01 15:35:39;;;;;;;;;;;11.68;12.27;;;;;;2663063;76;20493;-93
2023/04/01 15:39:01;;;;;;;;;;;11.57;11.12;;;;;;2666884;76;20476;-88
2023/04/01 15:42:32;;;;;;;;;;;11.70;9.56;;;;;;2669565;76;20773;-89
2023/04/01 15:46:10;;;;;;;;;;;;;;;;;;;;;
2023/04/01 15:49:34;;;;;;;;;;;11.55;8.05;;;;;;2669646;76;20897;-89
2023/04/01 15:53:07;;;;;;;;;;;11.51;8.34;;;;;;2670003;76;20451;-90
2023/04/01 15:56:36;;;;;;;;;;;11.55;8.86;;;;;;2670654;76;20378;-88
2023/04/01 16:00:04;;;;;;;;;;;11.44;7.02;;;;;;2670162;76;20690;-89
2023/04/01 16:03:36;;;;;;;;;;;11.64;6.41;;;;;;2669030;76;20495;-90
2023/04/01 16:07:11;;;;;;;;;;;11.92;6.16;;;;;;2669847;76;20504;-90
2023/04/01 16:10:36;;;;;;;;;;;12.40;4.80;;;;;;2670444;76;21094;-89
2023/04/01 16:14:04;;;;;;;;;;;12.14;4.39;;;;;;2670407;76;20439;-89
2023/04/01 16:17:32;;;;;;;;;;;12.33;3.16;;;;;;2669514;76;20442;-88
2023/04/01 16:21:00;;;;;;;;;;;13.24;1.77;;;;;;2670909;76;20493;-89
2023/04/01 16:24:28;;;;;;;;;;;12.53;1.97;;;;;;2670034;76;20466;-89
2023/04/01 16:27:57;;;;;;;;;;;12.12;2.55;;;;;;2670309;76;20638;-88
2023/04/01 16:31:25;;;;;;;;;;;12.22;1.55;;;;;;2670334;76;20482;-88
2023/04/01 16:34:53;;;;;;;;;;;11.67;2.22;;;;;;2670685;76;20484;-89
2023/04/01 16:38:21;;;;;;;;;;;11.34;3.40;;;;;;2671661;76;20450;-88
2023/04/01 16:41:49;;;;;;;;;;;11.39;4.86;;;;;;2672180;76;20517;-87
2023/04/01 16:45:17;;;;;;;;;;;11.53;4.87;;;;;;2671903;76;20469;-88
2023/04/01 16:48:45;;;;;;;;;;;11.29;4.22;;;;;;2671777;76;20447;-88
2023/04/01 16:52:14;;;;;;;;;;;11.13;4.35;;;;;;2672200;76;20425;-88
2023/04/01 16:55:42;;;;;;;;;;;10.95;5.04;;;;;;2672690;76;20443;-88
2023/04/01 16:59:10;;;;;;;;;;;10.81;5.66;;;;;;2671599;76;20487;-88
2023/04/01 17:02:38;;;;;;;;;;;10.67;6.04;;;;;;2672382;76;20445;-88
2023/04/01 17:06:06;;;;;;;;;;;10.58;6.64;;;;;;2671575;76;20401;-88
2023/04/01 17:09:40;;;;;;;;;;;10.51;7.03;;;;;;2672955;76;20436;-87
2023/04/01 17:13:04;;;;;;;;;;;10.43;7.05;;;;;;2671601;76;20442;-88
2023/04/01 17:16:32;;;;;;;;;;;10.33;7.11;;;;;;2671876;76;20426;-88
2023/04/01 17:20:01;;;;;;;;;;;10.45;8.09;;;;;;2670826;76;20444;-87
2023/04/01 17:23:29;;;;;;;;;;;10.45;8.60;;;;;;2670455;76;20437;-88
2023/04/01 17:26:57;;;;;;;;;;;10.38;7.63;;;;;;2672397;76;20431;-87
2023/04/01 17:30:25;;;;;;;;;;;10.34;7.17;;;;;;2671182;76;20429;-88
2023/04/01 17:33:53;;;;;;;;;;;10.26;6.77;;;;;;2672389;76;20428;-88
2023/04/01 17:37:21;;;;;;;;;;;10.15;5.67;;;;;;2671441;76;20455;-88
2023/04/01 17:40:49;;;;;;;;;;;10.21;5.57;;;;;;2670857;76;20445;-89
2023/04/01 17:44:18;;;;;;;;;;;10.21;6.62;;;;;;2670567;76;20460;-88
2023/04/01 17:47:46;;;;;;;;;;;10.18;6.38;;;;;;2672046;76;20423;-88
2023/04/01 17:51:14;;;;;;;;;;;10.19;6.89;;;;;;2672073;76;20448;-88
2023/04/01 17:54:42;;;;;;;;;;;10.21;7.46;;;;;;2672164;76;20404;-88
2023/04/01 17:58:10;;;;;;;;;;;10.05;6.89;;;;;;2672011;76;20415;-88
2023/04/01 18:01:38;;;;;;;;;;;10.09;7.37;;;;;;2672535;76;20406;-87
2023/04/01 18:05:07;;;;;;;;;;;10.05;7.51;;;;;;2672387;76;20417;-88
2023/04/01 18:08:35;;;;;;;;;;;10.09;8.88;;;;;;2672825;76;20438;-88
2023/04/01 18:12:04;;;;;;;;;;;10.07;9.56;;;;;;2670593;76;20439;-88
2023/04/01 18:15:50;;;;;;;;;;;10.05;10.63;;;;;;2668052;76;20499;-89
2023/04/01 18:19:12;;;;;;;;;;;10.00;10.75;;;;;;2669575;76;20468;-89
2023/04/01 18:22:42;;;;;;;;;;;10.07;10.62;;;;;;2669295;76;20482;-90
2023/04/01 18:26:12;;;;;;;;;;;10.06;9.61;;;;;;2668088;76;20456;-91
2023/04/01 18:29:40;;;;;;;;;;;10.19;11.01;;;;;;2669144;76;20428;-90
2023/04/01 18:33:08;;;;;;;;;;;10.13;10.09;;;;;;2670049;76;20447;-89
2023/04/01 18:36:36;;;;;;;;;;;10.09;10.00;;;;;;2669336;76;20584;-89
2023/04/01 18:40:05;;;;;;;;;;;10.22;11.02;;;;;;2669270;76;20959;-90
2023/04/01 18:43:37;;;;;;;;;;;10.22;11.97;;;;;;2668466;76;20742;-90
2023/04/01 18:47:05;;;;;;;;;;;10.15;12.69;;;;;;2670881;76;20444;-90
2023/04/01 18:50:34;;;;;;;;;;;10.12;13.23;;;;;;2670769;76;20878;-91
2023/04/01 18:54:02;;;;;;;;;;;10.08;13.81;;;;;;2668840;76;20462;-91
2023/04/01 18:57:30;;;;;;;;;;;10.03;14.68;;;;;;2667533;76;20499;-89
2023/04/01 19:01:04;;;;;;;;;;;9.82;14.22;;;;;;2669068;76;20443;-89
2023/04/01 19:04:32;;;;;;;;;;;9.70;14.37;;;;;;2667987;76;20429;-90
2023/04/01 19:08:02;;;;;;;;;;;9.74;15.36;;;;;;2668884;76;20482;-90
2023/04/01 19:15:20;;;;;;;;;;;9.71;15.80;;;;;;2671448;76;20468;-89
2023/04/01 19:19:01;;;;;;;;;;;;;;;;;;;;;
2023/04/01 19:22:21;;;;;;;;;;;9.81;15.50;;;;;;2670716;76;20441;-91
2023/04/01 19:25:55;;;;;;;;;;;9.88;16.48;;;;;;2669830;76;20479;-91
2023/04/01 19:29:22;;;;;;;;;;;9.80;15.84;;;;;;2670721;76;20470;-89
2023/04/01 19:32:51;;;;;;;;;;;9.86;16.04;;;;;;2671327;76;20340;-91
2023/04/01 19:36:19;;;;;;;;;;;9.84;15.98;;;;;;2670853;76;20462;-89
2023/04/01 19:39:47;;;;;;;;;;;9.86;16.76;;;;;;2670514;76;20319;-88
2023/04/01 19:43:15;;;;;;;;;;;9.85;17.20;;;;;;2669373;76;20460;-89
2023/04/01 19:46:43;;;;;;;;;;;9.70;17.05;;;;;;2669392;76;20471;-88
2023/04/01 19:50:11;;;;;;;;;;;9.67;17.13;;;;;;2669596;76;20430;-88
2023/04/01 19:53:39;;;;;;;;;;;9.70;17.49;;;;;;2669950;76;21029;-89
2023/04/01 19:57:07;;;;;;;;;;;9.71;18.10;;;;;;2670354;76;20927;-89
2023/04/01 20:00:35;;;;;;;;;;;9.71;18.50;;;;;;2669770;76;20913;-91
2023/04/01 20:04:04;;;;;;;;;;;9.61;17.32;;;;;;2670549;76;20749;-90
2023/04/01 20:07:32;;;;;;;;;;;9.64;18.06;;;;;;2670742;76;20870;-90
2023/04/01 20:11:02;;;;;;;;;;;9.56;17.78;;;;;;2669790;76;20501;-90
2023/04/01 20:14:30;;;;;;;;;;;9.55;18.13;;;;;;2670027;76;20965;-91
2023/04/01 20:17:58;;;;;;;;;;;9.55;18.57;;;;;;2671614;76;20997;-90
2023/04/01 20:21:26;;;;;;;;;;;9.50;18.03;;;;;;2671832;76;20463;-89
2023/04/01 20:24:54;;;;;;;;;;;9.53;18.63;;;;;;2670268;76;20565;-90
2023/04/01 20:28:22;;;;;;;;;;;9.52;18.82;;;;;;2670087;76;21017;-90
2023/04/01 20:31:56;;;;;;;;;;;9.34;17.69;;;;;;2671200;76;20443;-90
2023/04/01 20:35:21;;;;;;;;;;;9.36;16.96;;;;;;2670572;76;20450;-90
2023/04/01 20:38:49;;;;;;;;;;;9.41;17.57;;;;;;2668444;76;20400;-90
2023/04/01 20:42:17;;;;;;;;;;;9.37;17.08;;;;;;2669167;76;20501;-91
2023/04/01 20:45:45;;;;;;;;;;;9.35;16.76;;;;;;2668946;76;20510;-90
2023/04/01 20:49:13;;;;;;;;;;;9.46;17.73;;;;;;2670323;76;20514;-90
2023/04/01 20:52:41;;;;;;;;;;;9.32;16.68;;;;;;2670265;76;20490;-90
2023/04/01 20:56:10;;;;;;;;;;;9.45;17.67;;;;;;2669151;76;20977;-90
2023/04/01 20:59:38;;;;;;;;;;;9.48;18.01;;;;;;2669830;76;20938;-90
2023/04/01 21:03:06;;;;;;;;;;;9.44;17.99;;;;;;2669313;76;20574;-90
2023/04/01 21:06:34;;;;;;;;;;;9.45;18.63;;;;;;2670417;76;20800;-90
2023/04/01 21:10:02;;;;;;;;;;;9.46;19.32;;;;;;2668603;76;21331;-90
2023/04/01 21:13:30;;;;;;;;;;;9.44;19.44;;;;;;2669435;76;20397;-90
2023/04/01 21:16:58;;;;;;;;;;;9.40;19.77;;;;;;2670382;76;20445;-90
2023/04/01 21:20:26;;;;;;;;;;;9.34;19.79;;;;;;2669211;76;20681;-90
2023/04/01 21:23:55;;;;;;;;;;;9.37;20.04;;;;;;2669066;76;20448;-88